createdAt,value
2023-03-16T06:41:26.399Z,39.60
2023-03-16T06:44:13.320Z,39.60
2023-03-16T06:46:59.114Z,38.97
2023-03-16T06:49:44.272Z,38.87
2023-03-16T06:52:29.726Z,37.71
2023-03-16T06:55:15.634Z,35.51
2023-03-16T06:58:01.557Z,35.22
2023-03-16T07:00:47.088Z,34.93
2023-03-16T07:03:33.472Z,34.70
2023-03-16T07:06:39.064Z,35.52
2023-03-16T07:09:25.853Z,37.88
2023-03-16T07:12:12.310Z,46.02
2023-03-16T07:14:58.296Z,48.51
2023-03-16T07:17:43.874Z,48.73
2023-03-16T07:20:32.858Z,50.88
2023-03-16T07:23:21.073Z,52.45
2023-03-16T07:26:08.403Z,52.99
2023-03-16T07:28:54.008Z,52.88
2023-03-16T07:31:40.362Z,52.47
2023-03-16T07:34:25.858Z,54.19
2023-03-16T07:37:11.743Z,53.82
2023-03-16T07:39:56.880Z,54.15
2023-03-16T07:42:44.301Z,53.17
2023-03-16T07:45:29.984Z,53.12
2023-03-16T07:48:16.198Z,52.33
2023-03-16T07:51:01.844Z,52.21
2023-03-16T07:53:47.409Z,52.03
2023-03-16T07:56:47.478Z,52.33
2023-03-16T07:59:33.309Z,51.54
2023-03-16T08:02:20.068Z,51.57
2023-03-16T08:05:05.773Z,50.07
2023-03-16T08:07:51.665Z,49.56
2023-03-16T08:10:37.388Z,48.94
2023-03-16T08:13:22.636Z,48.01
2023-03-16T08:16:10.596Z,48.25
2023-03-16T08:18:57.150Z,48.01
2023-03-16T08:21:59.756Z,47.42
2023-03-16T08:24:46.222Z,46.25
2023-03-16T08:27:31.324Z,46.41
2023-03-16T08:30:17.714Z,46.00
2023-03-16T08:33:03.628Z,45.81
2023-03-16T08:35:48.810Z,45.51
2023-03-16T08:38:35.376Z,44.96
2023-03-16T08:41:21.581Z,44.81
2023-03-16T08:44:07.950Z,44.85
2023-03-16T08:46:53.417Z,44.03
2023-03-16T08:49:38.606Z,43.58
2023-03-16T08:52:26.266Z,42.35
2023-03-16T08:55:13.637Z,41.24
2023-03-16T08:58:00.718Z,39.00
2023-03-16T09:00:47.447Z,31.54
2023-03-16T09:03:37.826Z,30.91
2023-03-16T09:06:23.510Z,26.08
2023-03-16T09:09:09.795Z,22.47
2023-03-16T09:11:55.434Z,18.67
2023-03-16T09:14:40.889Z,21.56
2023-03-16T09:17:27.211Z,23.74
2023-03-16T09:20:34.574Z,29.53
2023-03-16T09:23:21.150Z,21.10
2023-03-16T09:26:07.682Z,15.98
2023-03-16T09:28:54.637Z,14.72
2023-03-16T09:31:43.275Z,20.80
2023-03-16T09:34:30.520Z,20.98
2023-03-16T09:37:16.748Z,23.39
2023-03-16T09:40:06.810Z,16.45
2023-03-16T09:43:11.264Z,16.08
2023-03-16T09:46:06.510Z,15.35
2023-03-16T09:48:52.291Z,23.38
2023-03-16T09:51:39.404Z,26.89
2023-03-16T09:55:17.638Z,21.35
2023-03-16T09:58:07.002Z,16.94
2023-03-16T10:01:10.905Z,13.75
2023-03-16T10:04:02.548Z,12.95
2023-03-16T10:06:58.475Z,12.48
2023-03-16T10:09:51.233Z,12.05
2023-03-16T10:12:43.735Z,14.32
2023-03-16T10:15:32.846Z,19.08
2023-03-16T10:18:26.524Z,21.91
2023-03-16T10:21:14.511Z,14.45
2023-03-16T10:24:02.442Z,12.87
2023-03-16T10:26:54.624Z,12.10
2023-03-16T10:29:39.854Z,10.81
2023-03-16T10:32:29.462Z,10.92
2023-03-16T10:35:54.243Z,10.51
2023-03-16T10:38:40.107Z,10.12
2023-03-16T10:41:31.306Z,9.70
2023-03-16T10:44:23.750Z,9.67
2023-03-16T10:47:18.354Z,9.58
2023-03-16T10:50:16.895Z,10.98
2023-03-16T10:53:03.443Z,10.94
2023-03-16T10:55:50.434Z,11.05
2023-03-16T10:58:46.700Z,17.20
2023-03-16T11:01:32.297Z,17.59
2023-03-16T11:04:19.298Z,16.42
2023-03-16T11:07:09.805Z,13.53
2023-03-16T11:09:55.719Z,10.87
2023-03-16T11:12:41.636Z,9.86
2023-03-16T11:15:28.598Z,10.45
2023-03-16T11:18:25.108Z,16.19
2023-03-16T11:21:18.362Z,12.23
2023-03-16T11:24:05.006Z,11.55
2023-03-16T11:26:55.782Z,10.47
2023-03-16T11:29:47.426Z,10.64
2023-03-16T11:32:38.118Z,9.58
2023-03-16T11:35:52.747Z,9.81
2023-03-16T11:38:56.918Z,10.83
2023-03-16T11:41:52.223Z,10.40
2023-03-16T11:44:57.882Z,9.50
2023-03-16T11:48:04.796Z,9.87
2023-03-16T11:51:10.486Z,10.04
2023-03-16T11:54:35.844Z,10.37
2023-03-16T11:57:37.847Z,10.15
2023-03-16T12:00:40.632Z,9.30
2023-03-16T12:03:31.931Z,8.52
2023-03-16T12:06:39.107Z,8.52
2023-03-16T12:09:43.253Z,9.48
2023-03-16T12:12:54.715Z,9.01
2023-03-16T12:15:48.741Z,8.70
2023-03-16T12:19:04.621Z,8.90
2023-03-16T12:22:01.279Z,10.33
2023-03-16T12:24:48.351Z,10.25
2023-03-16T12:27:36.675Z,10.54
2023-03-16T12:30:26.261Z,9.93
2023-03-16T12:33:55.353Z,9.42
2023-03-16T12:37:02.902Z,10.36
2023-03-16T12:39:53.890Z,9.05
2023-03-16T12:42:48.248Z,7.93
2023-03-16T12:45:54.947Z,8.39
2023-03-16T12:48:44.798Z,8.73
2023-03-16T12:51:38.809Z,9.18
2023-03-16T12:54:25.880Z,10.42
2023-03-16T12:57:17.010Z,12.10
2023-03-16T13:00:04.899Z,9.89
2023-03-16T13:02:53.625Z,9.89
2023-03-16T13:05:45.848Z,9.50
2023-03-16T13:08:48.387Z,10.01
2023-03-16T13:11:50.188Z,10.71
2023-03-16T13:14:44.246Z,9.65
2023-03-16T13:17:32.179Z,9.88
2023-03-16T13:20:31.176Z,11.54
2023-03-16T13:23:26.304Z,10.92
2023-03-16T13:26:46.301Z,9.88
2023-03-16T13:29:32.744Z,10.46
2023-03-16T13:32:19.743Z,11.47
2023-03-16T13:35:05.515Z,11.47
2023-03-16T13:37:51.180Z,11.97
2023-03-16T13:40:46.380Z,11.18
2023-03-16T13:43:34.985Z,11.65
2023-03-16T13:46:22.524Z,11.54
2023-03-16T13:49:07.571Z,11.73
2023-03-16T13:51:55.741Z,12.61
2023-03-16T13:54:41.975Z,12.29
2023-03-16T13:57:30.556Z,13.21
2023-03-16T14:00:21.741Z,12.41
2023-03-16T14:03:18.964Z,12.16
2023-03-16T14:06:07.544Z,13.70
2023-03-16T14:08:58.881Z,13.43
2023-03-16T14:11:48.455Z,13.57
2023-03-16T14:14:41.722Z,14.10
2023-03-16T14:17:28.384Z,14.72
2023-03-16T14:20:25.534Z,15.23
2023-03-16T14:23:21.857Z,14.79
2023-03-16T14:26:18.910Z,14.16
2023-03-16T14:29:17.248Z,14.10
2023-03-16T14:32:02.573Z,14.56
2023-03-16T14:34:51.550Z,14.62
2023-03-16T14:37:38.623Z,14.70
2023-03-16T14:40:30.831Z,14.98
2023-03-16T14:43:16.148Z,15.28
2023-03-16T14:46:04.042Z,15.21
2023-03-16T14:48:50.620Z,15.29
2023-03-16T14:51:38.131Z,15.71
2023-03-16T14:54:28.246Z,15.78
2023-03-16T14:57:16.724Z,16.66
2023-03-16T15:00:02.306Z,16.34
2023-03-16T15:03:08.713Z,15.79
2023-03-16T15:05:54.705Z,16.08
2023-03-16T15:08:44.522Z,15.67
2023-03-16T15:11:31.752Z,16.48
2023-03-16T15:14:37.140Z,16.54
2023-03-16T15:17:22.135Z,17.11
2023-03-16T15:20:08.300Z,18.29
2023-03-16T15:22:53.642Z,18.39
2023-03-16T15:25:41.365Z,18.09
2023-03-16T15:28:27.781Z,17.67
2023-03-16T15:31:17.133Z,17.87
2023-03-16T15:34:02.687Z,17.77
2023-03-16T15:36:48.193Z,18.15
2023-03-16T15:39:33.439Z,18.60
2023-03-16T15:42:19.442Z,18.85
2023-03-16T15:45:07.701Z,19.27
2023-03-16T15:47:56.028Z,19.44
2023-03-16T15:50:44.739Z,19.42
2023-03-16T15:53:39.417Z,20.06
2023-03-16T15:56:30.020Z,20.66
2023-03-16T15:59:17.257Z,20.97
2023-03-16T16:02:03.184Z,21.37
2023-03-16T16:04:48.706Z,21.88
2023-03-16T16:07:33.984Z,22.29
2023-03-16T16:10:19.376Z,21.85
2023-03-16T16:13:04.313Z,22.27
2023-03-16T16:15:49.626Z,22.81
2023-03-16T16:18:38.763Z,23.31
2023-03-16T16:21:28.119Z,23.24
2023-03-16T16:24:16.561Z,24.11
2023-03-16T16:27:01.837Z,24.64
2023-03-16T16:29:47.282Z,25.28
2023-03-16T16:32:32.189Z,25.51
2023-03-16T16:35:24.689Z,26.07
2023-03-16T16:38:10.399Z,26.50
2023-03-16T16:40:58.619Z,26.88
2023-03-16T16:43:47.141Z,27.20
2023-03-16T16:46:40.316Z,27.04
2023-03-16T16:49:28.432Z,27.36
2023-03-16T16:52:17.471Z,27.89
2023-03-16T16:55:02.607Z,28.15
2023-03-16T16:57:49.427Z,28.57
2023-03-16T17:00:38.082Z,28.66
2023-03-16T17:03:28.381Z,29.11
2023-03-16T17:06:18.862Z,29.47
2023-03-16T17:09:05.542Z,29.47
2023-03-16T17:11:51.500Z,30.10
2023-03-16T17:14:36.999Z,30.55
2023-03-16T17:17:22.434Z,31.28
2023-03-16T17:20:25.966Z,31.73
2023-03-16T17:23:26.502Z,31.69
2023-03-16T17:26:16.287Z,32.46
2023-03-16T17:29:06.418Z,32.88
2023-03-16T17:31:52.271Z,32.88
2023-03-16T17:34:37.625Z,33.30
2023-03-16T17:37:23.329Z,33.45
2023-03-16T17:40:20.164Z,33.66
2023-03-16T17:43:06.313Z,34.34
2023-03-16T17:45:55.832Z,34.20
2023-03-16T17:48:40.974Z,34.60
2023-03-16T17:51:26.727Z,34.96
2023-03-16T17:54:12.406Z,34.95
2023-03-16T17:56:57.767Z,35.89
2023-03-16T17:59:45.399Z,35.82
2023-03-16T18:02:50.588Z,35.92
2023-03-16T18:05:36.847Z,36.11
2023-03-16T18:08:27.670Z,36.39
2023-03-16T18:11:17.869Z,36.32
2023-03-16T18:14:04.928Z,36.59
2023-03-16T18:16:50.069Z,36.87
2023-03-16T18:19:35.597Z,37.02
2023-03-16T18:22:24.674Z,37.19
2023-03-16T18:25:27.555Z,37.21
2023-03-16T18:28:13.964Z,37.31
2023-03-16T18:31:00.132Z,37.88
2023-03-16T18:33:46.820Z,37.85
2023-03-16T18:36:34.303Z,38.28
2023-03-16T18:39:20.581Z,38.64
2023-03-16T18:42:06.759Z,38.63
2023-03-16T18:44:52.011Z,39.18
2023-03-16T18:47:39.696Z,39.41
2023-03-16T18:50:30.259Z,39.58
2023-03-16T18:53:16.668Z,39.53
2023-03-16T18:56:02.085Z,39.64
2023-03-16T18:58:52.763Z,39.66
2023-03-16T19:01:39.575Z,39.75
2023-03-16T19:04:27.575Z,40.92
2023-03-16T19:07:24.680Z,43.16
2023-03-16T19:10:35.577Z,42.98
2023-03-16T19:13:22.467Z,40.98
2023-03-16T19:16:16.655Z,41.13
2023-03-16T19:19:01.935Z,41.14
2023-03-16T19:21:48.902Z,40.77
2023-03-16T19:24:36.418Z,40.95
2023-03-16T19:27:26.901Z,41.09
2023-03-16T19:30:20.770Z,41.20
2023-03-16T19:33:12.198Z,40.99
2023-03-16T19:35:58.094Z,41.20
2023-03-16T19:38:47.113Z,41.46
2023-03-16T19:41:34.579Z,41.12
2023-03-16T19:44:22.486Z,41.16
2023-03-16T19:47:22.000Z,41.58
2023-03-16T19:50:17.276Z,41.65
2023-03-16T19:53:02.357Z,41.85
2023-03-16T19:55:49.096Z,42.00
2023-03-16T19:58:38.513Z,41.79
2023-03-16T20:01:32.224Z,42.08
2023-03-16T20:04:18.289Z,42.25
2023-03-16T20:07:07.395Z,42.63
2023-03-16T20:09:53.053Z,42.14
2023-03-16T20:12:40.359Z,42.29
2023-03-16T20:15:29.266Z,42.38
2023-03-16T20:18:17.276Z,42.36
2023-03-16T20:21:02.598Z,42.72
2023-03-16T20:23:48.537Z,43.24
2023-03-16T20:26:33.952Z,43.26
2023-03-16T20:29:28.698Z,43.33
2023-03-16T20:32:22.732Z,43.20
2023-03-16T20:35:18.903Z,43.19
2023-03-16T20:38:04.262Z,43.00
2023-03-16T20:40:54.154Z,43.47
2023-03-16T20:43:39.452Z,48.13
2023-03-16T20:46:27.880Z,49.39
2023-03-16T20:49:22.219Z,50.93
2023-03-16T20:52:19.195Z,52.20
2023-03-16T20:55:05.319Z,52.28
2023-03-16T20:57:52.494Z,52.60
2023-03-16T21:00:39.146Z,53.13
2023-03-16T21:03:27.626Z,53.02
2023-03-16T21:06:39.188Z,52.91
2023-03-16T21:09:24.645Z,54.60
2023-03-16T21:12:29.410Z,55.32
2023-03-16T21:15:35.428Z,56.07
2023-03-16T21:18:21.612Z,56.50
2023-03-16T21:21:06.739Z,55.90
2023-03-16T21:23:52.272Z,54.89
2023-03-16T21:26:37.767Z,54.99
2023-03-16T21:29:23.865Z,54.75
2023-03-16T21:32:19.409Z,56.12
2023-03-16T21:35:04.864Z,56.83
2023-03-16T21:37:52.326Z,56.67
2023-03-16T21:40:37.343Z,57.10
2023-03-16T21:43:23.283Z,56.96
2023-03-16T21:46:18.531Z,57.45
2023-03-16T21:49:05.028Z,56.08
2023-03-16T21:51:51.123Z,56.22
2023-03-16T21:54:36.502Z,56.27
2023-03-16T21:57:21.761Z,57.41
2023-03-16T22:00:08.261Z,57.31
2023-03-16T22:02:55.593Z,58.08
2023-03-16T22:05:42.881Z,59.19
2023-03-16T22:08:31.174Z,58.96
2023-03-16T22:11:21.938Z,58.89
2023-03-16T22:14:09.894Z,57.98
2023-03-16T22:16:55.936Z,57.60
2023-03-16T22:19:41.014Z,56.97
2023-03-16T22:22:27.197Z,58.31
2023-03-16T22:25:17.257Z,59.50
2023-03-16T22:28:02.876Z,59.69
2023-03-16T22:30:48.523Z,59.67
2023-03-16T22:33:40.682Z,60.26
2023-03-16T22:36:27.044Z,60.68
2023-03-16T22:39:15.667Z,60.40
2023-03-16T22:42:01.206Z,59.04
2023-03-16T22:44:46.687Z,59.46
2023-03-16T22:47:36.854Z,58.41
2023-03-16T22:50:24.314Z,58.42
2023-03-16T22:53:11.663Z,57.73
2023-03-16T22:55:57.245Z,57.30
2023-03-16T22:58:45.937Z,57.23
2023-03-16T23:01:42.647Z,56.70
2023-03-16T23:04:30.406Z,56.36
2023-03-16T23:07:16.048Z,57.08
2023-03-16T23:10:01.193Z,57.17
2023-03-16T23:12:46.567Z,57.32
2023-03-16T23:15:38.362Z,58.16
2023-03-16T23:18:25.359Z,58.33
2023-03-16T23:21:19.245Z,58.86
2023-03-16T23:24:04.878Z,58.77
2023-03-16T23:26:51.201Z,59.07
2023-03-16T23:29:36.522Z,59.28
2023-03-16T23:32:21.881Z,59.81
2023-03-16T23:35:19.606Z,60.37
2023-03-16T23:38:04.903Z,60.46
2023-03-16T23:40:50.110Z,60.93
2023-03-16T23:43:36.183Z,61.19
2023-03-16T23:46:23.367Z,61.47
2023-03-16T23:49:24.207Z,62.25
2023-03-16T23:52:10.157Z,62.37
2023-03-16T23:54:56.177Z,62.78
2023-03-16T23:57:41.553Z,62.95
